sensor_id;sensor_type;location;lat;lon;timestamp;temperature;humidity
66608;DHT22;53462;39.616;8.824;2023-02-28T00:01:23;8.00;99.90
66608;DHT22;53462;39.616;8.824;2023-02-28T00:03:49;8.00;99.90
66608;DHT22;53462;39.616;8.824;2023-02-28T00:06:15;7.80;99.90
66608;DHT22;53462;39.616;8.824;2023-02-28T00:08:41;7.70;99.90
66608;DHT22;53462;39.616;8.824;2023-02-28T00:11:10;7.70;99.90
66608;DHT22;53462;39.616;8.824;2023-02-28T00:13:40;7.80;99.90
66608;DHT22;53462;39.616;8.824;2023-02-28T00:16:09;7.80;99.90
66608;DHT22;53462;39.616;8.824;2023-02-28T00:18:36;7.80;99.90
66608;DHT22;53462;39.616;8.824;2023-02-28T00:21:03;7.80;99.90
66608;DHT22;53462;39.616;8.824;2023-02-28T00:23:29;7.90;99.90
66608;DHT22;53462;39.616;8.824;2023-02-28T00:25:55;7.90;99.90
66608;DHT22;53462;39.616;8.824;2023-02-28T00:28:21;8.10;99.90
66608;DHT22;53462;39.616;8.824;2023-02-28T00:30:48;8.00;99.90
66608;DHT22;53462;39.616;8.824;2023-02-28T00:33:14;8.00;99.90
66608;DHT22;53462;39.616;8.824;2023-02-28T00:35:40;8.00;99.90
66608;DHT22;53462;39.616;8.824;2023-02-28T00:38:08;7.90;99.90
66608;DHT22;53462;39.616;8.824;2023-02-28T00:40:35;7.80;99.90
66608;DHT22;53462;39.616;8.824;2023-02-28T00:43:00;7.70;99.90
66608;DHT22;53462;39.616;8.824;2023-02-28T00:45:26;7.70;99.90
66608;DHT22;53462;39.616;8.824;2023-02-28T00:47:52;7.80;99.90
66608;DHT22;53462;39.616;8.824;2023-02-28T00:50:19;7.80;99.90
66608;DHT22;53462;39.616;8.824;2023-02-28T00:52:46;7.80;99.90
66608;DHT22;53462;39.616;8.824;2023-02-28T00:55:14;7.90;99.90
66608;DHT22;53462;39.616;8.824;2023-02-28T00:57:40;7.90;99.90
66608;DHT22;53462;39.616;8.824;2023-02-28T01:00:07;7.80;99.90
66608;DHT22;53462;39.616;8.824;2023-02-28T01:02:33;7.80;99.90
66608;DHT22;53462;39.616;8.824;2023-02-28T01:04:59;7.90;99.90
66608;DHT22;53462;39.616;8.824;2023-02-28T01:07:29;7.90;99.90
66608;DHT22;53462;39.616;8.824;2023-02-28T01:09:55;7.80;99.90
66608;DHT22;53462;39.616;8.824;2023-02-28T01:12:21;7.80;99.90
66608;DHT22;53462;39.616;8.824;2023-02-28T01:14:47;7.80;99.90
66608;DHT22;53462;39.616;8.824;2023-02-28T01:17:13;7.80;99.90
66608;DHT22;53462;39.616;8.824;2023-02-28T01:19:39;7.70;99.90
66608;DHT22;53462;39.616;8.824;2023-02-28T01:22:06;7.70;99.90
66608;DHT22;53462;39.616;8.824;2023-02-28T01:24:34;7.60;99.90
66608;DHT22;53462;39.616;8.824;2023-02-28T01:27:00;7.60;99.90
66608;DHT22;53462;39.616;8.824;2023-02-28T01:29:25;7.70;99.90
66608;DHT22;53462;39.616;8.824;2023-02-28T01:31:52;7.70;99.90
66608;DHT22;53462;39.616;8.824;2023-02-28T01:34:18;7.70;99.90
66608;DHT22;53462;39.616;8.824;2023-02-28T01:36:45;7.70;99.90
66608;DHT22;53462;39.616;8.824;2023-02-28T01:39:11;7.60;99.90
66608;DHT22;53462;39.616;8.824;2023-02-28T01:41:38;7.60;99.90
66608;DHT22;53462;39.616;8.824;2023-02-28T01:47:11;7.60;99.90
66608;DHT22;53462;39.616;8.824;2023-02-28T01:49:38;7.50;99.90
66608;DHT22;53462;39.616;8.824;2023-02-28T01:52:04;7.60;99.90
66608;DHT22;53462;39.616;8.824;2023-02-28T01:54:33;7.60;99.90
66608;DHT22;53462;39.616;8.824;2023-02-28T01:57:28;7.60;99.90
66608;DHT22;53462;39.616;8.824;2023-02-28T02:00:02;7.50;99.90
66608;DHT22;53462;39.616;8.824;2023-02-28T02:02:38;7.50;99.90
66608;DHT22;53462;39.616;8.824;2023-02-28T02:05:08;7.50;99.90
66608;DHT22;53462;39.616;8.824;2023-02-28T02:07:40;7.50;99.90
66608;DHT22;53462;39.616;8.824;2023-02-28T02:10:13;7.50;99.90
66608;DHT22;53462;39.616;8.824;2023-02-28T02:12:58;7.50;99.90
66608;DHT22;53462;39.616;8.824;2023-02-28T02:18:39;7.50;99.90
66608;DHT22;53462;39.616;8.824;2023-02-28T02:32:49;7.60;99.90
66608;DHT22;53462;39.616;8.824;2023-02-28T02:38:20;7.50;99.90
66608;DHT22;53462;39.616;8.824;2023-02-28T02:40:57;7.60;99.90
66608;DHT22;53462;39.616;8.824;2023-02-28T02:44:02;7.50;99.90
66608;DHT22;53462;39.616;8.824;2023-02-28T02:46:38;7.40;99.90
66608;DHT22;53462;39.616;8.824;2023-02-28T02:49:19;7.50;99.90
66608;DHT22;53462;39.616;8.824;2023-02-28T02:51:47;7.50;99.90
66608;DHT22;53462;39.616;8.824;2023-02-28T02:54:18;7.50;99.90
66608;DHT22;53462;39.616;8.824;2023-02-28T02:56:47;7.50;99.90
66608;DHT22;53462;39.616;8.824;2023-02-28T02:59:17;7.40;99.90
66608;DHT22;53462;39.616;8.824;2023-02-28T03:01:54;7.40;99.90
66608;DHT22;53462;39.616;8.824;2023-02-28T03:04:23;7.30;99.90
66608;DHT22;53462;39.616;8.824;2023-02-28T03:06:51;7.30;99.90
66608;DHT22;53462;39.616;8.824;2023-02-28T03:09:22;7.40;99.90
66608;DHT22;53462;39.616;8.824;2023-02-28T03:11:49;7.40;99.90
66608;DHT22;53462;39.616;8.824;2023-02-28T03:14:35;7.40;99.90
66608;DHT22;53462;39.616;8.824;2023-02-28T03:20:26;7.30;99.90
66608;DHT22;53462;39.616;8.824;2023-02-28T03:23:42;7.40;99.90
66608;DHT22;53462;39.616;8.824;2023-02-28T03:26:21;7.40;99.90
66608;DHT22;53462;39.616;8.824;2023-02-28T03:31:50;7.20;99.90
66608;DHT22;53462;39.616;8.824;2023-02-28T03:34:24;7.10;99.90
66608;DHT22;53462;39.616;8.824;2023-02-28T03:36:55;7.10;99.90
66608;DHT22;53462;39.616;8.824;2023-02-28T03:39:28;7.10;99.90
66608;DHT22;53462;39.616;8.824;2023-02-28T03:42:02;7.10;99.90
66608;DHT22;53462;39.616;8.824;2023-02-28T03:45:32;7.10;99.90
66608;DHT22;53462;39.616;8.824;2023-02-28T03:50:42;7.10;99.90
66608;DHT22;53462;39.616;8.824;2023-02-28T03:53:42;7.10;99.90
66608;DHT22;53462;39.616;8.824;2023-02-28T03:56:18;7.10;99.90
66608;DHT22;53462;39.616;8.824;2023-02-28T04:01:39;7.10;99.90
66608;DHT22;53462;39.616;8.824;2023-02-28T04:04:08;7.10;99.90
66608;DHT22;53462;39.616;8.824;2023-02-28T04:06:34;7.10;99.90
66608;DHT22;53462;39.616;8.824;2023-02-28T04:09:01;7.20;99.90
66608;DHT22;53462;39.616;8.824;2023-02-28T04:11:44;7.30;99.90
66608;DHT22;53462;39.616;8.824;2023-02-28T04:14:11;7.10;99.90
66608;DHT22;53462;39.616;8.824;2023-02-28T04:16:40;7.00;99.90
66608;DHT22;53462;39.616;8.824;2023-02-28T04:19:08;7.10;99.90
66608;DHT22;53462;39.616;8.824;2023-02-28T04:21:40;7.10;99.90
66608;DHT22;53462;39.616;8.824;2023-02-28T04:24:08;7.10;99.90
66608;DHT22;53462;39.616;8.824;2023-02-28T04:26:36;7.10;99.90
66608;DHT22;53462;39.616;8.824;2023-02-28T04:29:04;7.20;99.90
66608;DHT22;53462;39.616;8.824;2023-02-28T04:31:31;7.20;99.90
66608;DHT22;53462;39.616;8.824;2023-02-28T04:33:57;7.30;99.90
66608;DHT22;53462;39.616;8.824;2023-02-28T04:36:23;7.20;99.90
66608;DHT22;53462;39.616;8.824;2023-02-28T04:38:50;7.10;99.90
66608;DHT22;53462;39.616;8.824;2023-02-28T04:41:16;7.00;99.90
66608;DHT22;53462;39.616;8.824;2023-02-28T04:43:43;6.90;99.90
66608;DHT22;53462;39.616;8.824;2023-02-28T04:46:09;6.90;99.90
66608;DHT22;53462;39.616;8.824;2023-02-28T04:48:37;6.80;99.90
66608;DHT22;53462;39.616;8.824;2023-02-28T04:51:09;6.90;99.90
66608;DHT22;53462;39.616;8.824;2023-02-28T04:53:37;6.80;99.90
66608;DHT22;53462;39.616;8.824;2023-02-28T04:56:04;6.90;99.90
66608;DHT22;53462;39.616;8.824;2023-02-28T04:58:30;6.90;99.90
66608;DHT22;53462;39.616;8.824;2023-02-28T05:01:14;6.80;99.90
66608;DHT22;53462;39.616;8.824;2023-02-28T05:03:42;6.80;99.90
66608;DHT22;53462;39.616;8.824;2023-02-28T05:06:12;6.80;99.90
66608;DHT22;53462;39.616;8.824;2023-02-28T05:08:39;6.80;99.90
66608;DHT22;53462;39.616;8.824;2023-02-28T05:11:15;6.80;99.90
66608;DHT22;53462;39.616;8.824;2023-02-28T05:13:41;6.70;99.90
66608;DHT22;53462;39.616;8.824;2023-02-28T05:16:07;6.70;99.90
66608;DHT22;53462;39.616;8.824;2023-02-28T05:18:33;6.70;99.90
66608;DHT22;53462;39.616;8.824;2023-02-28T05:21:00;6.70;99.90
66608;DHT22;53462;39.616;8.824;2023-02-28T05:23:27;6.70;99.90
66608;DHT22;53462;39.616;8.824;2023-02-28T05:25:54;6.80;99.90
66608;DHT22;53462;39.616;8.824;2023-02-28T05:28:20;6.70;99.90
66608;DHT22;53462;39.616;8.824;2023-02-28T05:30:47;6.70;99.90
66608;DHT22;53462;39.616;8.824;2023-02-28T05:33:13;6.70;99.90
66608;DHT22;53462;39.616;8.824;2023-02-28T05:35:40;6.60;99.90
66608;DHT22;53462;39.616;8.824;2023-02-28T05:38:07;6.60;99.90
66608;DHT22;53462;39.616;8.824;2023-02-28T05:40:32;6.60;99.90
66608;DHT22;53462;39.616;8.824;2023-02-28T05:42:58;6.60;99.90
66608;DHT22;53462;39.616;8.824;2023-02-28T05:45:24;6.60;99.90
66608;DHT22;53462;39.616;8.824;2023-02-28T05:47:53;6.50;99.90
66608;DHT22;53462;39.616;8.824;2023-02-28T05:50:19;6.60;99.90
66608;DHT22;53462;39.616;8.824;2023-02-28T05:52:50;6.60;99.90
66608;DHT22;53462;39.616;8.824;2023-02-28T05:55:16;6.60;99.90
66608;DHT22;53462;39.616;8.824;2023-02-28T05:57:42;6.60;99.90
66608;DHT22;53462;39.616;8.824;2023-02-28T06:00:09;6.60;99.90
66608;DHT22;53462;39.616;8.824;2023-02-28T06:02:39;6.50;99.90
66608;DHT22;53462;39.616;8.824;2023-02-28T06:05:07;6.50;99.90
66608;DHT22;53462;39.616;8.824;2023-02-28T06:07:34;6.50;99.90
66608;DHT22;53462;39.616;8.824;2023-02-28T06:09:59;6.50;99.90
66608;DHT22;53462;39.616;8.824;2023-02-28T06:12:25;6.50;99.90
66608;DHT22;53462;39.616;8.824;2023-02-28T06:14:51;6.50;99.90
66608;DHT22;53462;39.616;8.824;2023-02-28T06:17:17;6.50;99.90
66608;DHT22;53462;39.616;8.824;2023-02-28T06:19:43;6.50;99.90
66608;DHT22;53462;39.616;8.824;2023-02-28T06:22:09;6.50;99.90
66608;DHT22;53462;39.616;8.824;2023-02-28T06:24:35;6.40;99.90
66608;DHT22;53462;39.616;8.824;2023-02-28T06:27:01;6.40;99.90
66608;DHT22;53462;39.616;8.824;2023-02-28T06:29:32;6.40;99.90
66608;DHT22;53462;39.616;8.824;2023-02-28T06:31:57;6.40;99.90
66608;DHT22;53462;39.616;8.824;2023-02-28T06:34:23;6.40;99.90
66608;DHT22;53462;39.616;8.824;2023-02-28T06:36:51;6.40;99.90
66608;DHT22;53462;39.616;8.824;2023-02-28T06:39:17;6.40;99.90
66608;DHT22;53462;39.616;8.824;2023-02-28T06:41:43;6.40;99.90
66608;DHT22;53462;39.616;8.824;2023-02-28T06:44:15;6.40;99.90
66608;DHT22;53462;39.616;8.824;2023-02-28T06:46:43;6.40;99.90
66608;DHT22;53462;39.616;8.824;2023-02-28T06:49:10;6.50;99.90
66608;DHT22;53462;39.616;8.824;2023-02-28T06:51:38;6.50;99.90
66608;DHT22;53462;39.616;8.824;2023-02-28T06:54:05;6.50;99.90
66608;DHT22;53462;39.616;8.824;2023-02-28T06:56:34;6.60;99.90
66608;DHT22;53462;39.616;8.824;2023-02-28T06:59:01;6.60;99.90
66608;DHT22;53462;39.616;8.824;2023-02-28T07:01:27;6.60;99.90
66608;DHT22;53462;39.616;8.824;2023-02-28T07:03:54;6.70;99.90
66608;DHT22;53462;39.616;8.824;2023-02-28T07:06:21;6.60;99.90
66608;DHT22;53462;39.616;8.824;2023-02-28T07:08:49;6.80;99.90
66608;DHT22;53462;39.616;8.824;2023-02-28T07:11:15;6.80;99.90
66608;DHT22;53462;39.616;8.824;2023-02-28T07:13:41;6.70;99.90
66608;DHT22;53462;39.616;8.824;2023-02-28T07:16:10;6.60;99.90
66608;DHT22;53462;39.616;8.824;2023-02-28T07:18:37;6.70;99.90
66608;DHT22;53462;39.616;8.824;2023-02-28T07:21:08;6.60;99.90
66608;DHT22;53462;39.616;8.824;2023-02-28T07:23:34;6.50;99.90
66608;DHT22;53462;39.616;8.824;2023-02-28T07:26:01;6.70;99.90
66608;DHT22;53462;39.616;8.824;2023-02-28T07:28:26;6.70;99.90
66608;DHT22;53462;39.616;8.824;2023-02-28T07:30:52;6.80;99.90
66608;DHT22;53462;39.616;8.824;2023-02-28T07:33:18;6.80;99.90
66608;DHT22;53462;39.616;8.824;2023-02-28T07:35:44;6.90;99.90
66608;DHT22;53462;39.616;8.824;2023-02-28T07:38:10;6.90;99.90
66608;DHT22;53462;39.616;8.824;2023-02-28T07:40:37;6.90;99.90
66608;DHT22;53462;39.616;8.824;2023-02-28T07:43:03;6.90;99.90
66608;DHT22;53462;39.616;8.824;2023-02-28T07:45:30;6.70;99.90
66608;DHT22;53462;39.616;8.824;2023-02-28T07:47:57;6.90;99.90
66608;DHT22;53462;39.616;8.824;2023-02-28T07:50:23;6.90;99.90
66608;DHT22;53462;39.616;8.824;2023-02-28T07:52:49;6.90;99.90
66608;DHT22;53462;39.616;8.824;2023-02-28T07:55:15;7.00;99.90
66608;DHT22;53462;39.616;8.824;2023-02-28T07:57:42;7.00;99.90
66608;DHT22;53462;39.616;8.824;2023-02-28T08:00:10;7.00;99.90
66608;DHT22;53462;39.616;8.824;2023-02-28T08:02:39;7.10;99.90
66608;DHT22;53462;39.616;8.824;2023-02-28T08:05:06;7.10;99.90
66608;DHT22;53462;39.616;8.824;2023-02-28T08:07:32;7.00;99.90
66608;DHT22;53462;39.616;8.824;2023-02-28T08:09:59;7.00;99.90
66608;DHT22;53462;39.616;8.824;2023-02-28T08:12:27;7.10;99.90
66608;DHT22;53462;39.616;8.824;2023-02-28T08:14:53;7.20;99.90
66608;DHT22;53462;39.616;8.824;2023-02-28T08:17:19;7.20;99.90
66608;DHT22;53462;39.616;8.824;2023-02-28T08:19:46;7.10;99.90
66608;DHT22;53462;39.616;8.824;2023-02-28T08:22:12;7.20;99.90
66608;DHT22;53462;39.616;8.824;2023-02-28T08:24:40;7.30;99.90
66608;DHT22;53462;39.616;8.824;2023-02-28T08:27:06;7.30;99.90
66608;DHT22;53462;39.616;8.824;2023-02-28T08:29:32;7.30;99.90
66608;DHT22;53462;39.616;8.824;2023-02-28T08:31:58;7.20;99.90
66608;DHT22;53462;39.616;8.824;2023-02-28T08:34:24;7.10;99.90
66608;DHT22;53462;39.616;8.824;2023-02-28T08:36:50;7.20;99.90
66608;DHT22;53462;39.616;8.824;2023-02-28T08:39:16;7.20;99.90
66608;DHT22;53462;39.616;8.824;2023-02-28T08:41:42;7.00;99.90
66608;DHT22;53462;39.616;8.824;2023-02-28T08:44:09;7.10;99.90
66608;DHT22;53462;39.616;8.824;2023-02-28T08:46:35;7.00;99.90
66608;DHT22;53462;39.616;8.824;2023-02-28T08:49:01;7.00;99.90
66608;DHT22;53462;39.616;8.824;2023-02-28T08:51:28;7.10;99.90
66608;DHT22;53462;39.616;8.824;2023-02-28T08:53:55;7.10;99.90
66608;DHT22;53462;39.616;8.824;2023-02-28T08:56:22;7.10;99.90
66608;DHT22;53462;39.616;8.824;2023-02-28T08:58:49;7.20;99.90
66608;DHT22;53462;39.616;8.824;2023-02-28T09:01:20;7.30;99.90
66608;DHT22;53462;39.616;8.824;2023-02-28T09:03:48;7.30;99.90
66608;DHT22;53462;39.616;8.824;2023-02-28T09:06:16;7.40;99.90
66608;DHT22;53462;39.616;8.824;2023-02-28T09:08:42;7.30;99.90
66608;DHT22;53462;39.616;8.824;2023-02-28T09:11:09;7.50;99.90
66608;DHT22;53462;39.616;8.824;2023-02-28T09:13:35;7.30;99.90
66608;DHT22;53462;39.616;8.824;2023-02-28T09:16:03;7.30;99.90
66608;DHT22;53462;39.616;8.824;2023-02-28T09:18:30;7.40;99.90
66608;DHT22;53462;39.616;8.824;2023-02-28T09:20:56;7.60;99.90
66608;DHT22;53462;39.616;8.824;2023-02-28T09:23:24;7.30;99.90
66608;DHT22;53462;39.616;8.824;2023-02-28T09:25:53;7.50;99.90
66608;DHT22;53462;39.616;8.824;2023-02-28T09:28:19;7.60;99.90
66608;DHT22;53462;39.616;8.824;2023-02-28T09:30:49;7.70;99.90
66608;DHT22;53462;39.616;8.824;2023-02-28T09:33:16;7.80;99.90
66608;DHT22;53462;39.616;8.824;2023-02-28T09:35:42;7.90;99.90
66608;DHT22;53462;39.616;8.824;2023-02-28T09:38:09;7.90;99.90
66608;DHT22;53462;39.616;8.824;2023-02-28T09:41:00;7.80;99.90
66608;DHT22;53462;39.616;8.824;2023-02-28T09:43:29;7.80;99.90
66608;DHT22;53462;39.616;8.824;2023-02-28T09:48:42;7.90;99.90
66608;DHT22;53462;39.616;8.824;2023-02-28T09:53:54;7.90;99.90
66608;DHT22;53462;39.616;8.824;2023-02-28T09:56:21;7.90;99.90
66608;DHT22;53462;39.616;8.824;2023-02-28T10:07:06;8.30;99.90
66608;DHT22;53462;39.616;8.824;2023-02-28T10:09:45;8.40;99.90
66608;DHT22;53462;39.616;8.824;2023-02-28T10:12:13;8.50;99.90
66608;DHT22;53462;39.616;8.824;2023-02-28T10:14:45;8.60;99.90
66608;DHT22;53462;39.616;8.824;2023-02-28T10:17:17;8.90;99.90
66608;DHT22;53462;39.616;8.824;2023-02-28T10:22:59;8.90;99.90
66608;DHT22;53462;39.616;8.824;2023-02-28T10:25:28;8.90;99.90
66608;DHT22;53462;39.616;8.824;2023-02-28T10:28:11;9.00;99.90
66608;DHT22;53462;39.616;8.824;2023-02-28T10:30:43;9.00;99.90
66608;DHT22;53462;39.616;8.824;2023-02-28T10:33:23;9.00;99.90
66608;DHT22;53462;39.616;8.824;2023-02-28T10:35:50;9.20;99.90
66608;DHT22;53462;39.616;8.824;2023-02-28T10:38:28;9.30;99.90
66608;DHT22;53462;39.616;8.824;2023-02-28T10:41:30;9.20;99.90
66608;DHT22;53462;39.616;8.824;2023-02-28T10:44:20;9.10;99.90
66608;DHT22;53462;39.616;8.824;2023-02-28T10:46:46;9.10;99.90
66608;DHT22;53462;39.616;8.824;2023-02-28T10:49:29;9.10;99.90
66608;DHT22;53462;39.616;8.824;2023-02-28T10:52:00;9.00;99.90
66608;DHT22;53462;39.616;8.824;2023-02-28T10:54:36;9.00;99.90
66608;DHT22;53462;39.616;8.824;2023-02-28T10:57:21;8.90;99.90
66608;DHT22;53462;39.616;8.824;2023-02-28T11:00:13;9.00;99.90
66608;DHT22;53462;39.616;8.824;2023-02-28T11:02:40;9.00;99.90
66608;DHT22;53462;39.616;8.824;2023-02-28T11:05:33;8.80;99.90
66608;DHT22;53462;39.616;8.824;2023-02-28T11:08:14;8.80;99.90
66608;DHT22;53462;39.616;8.824;2023-02-28T11:10:46;8.70;99.90
66608;DHT22;53462;39.616;8.824;2023-02-28T11:13:20;8.80;99.90
66608;DHT22;53462;39.616;8.824;2023-02-28T11:15:53;8.90;99.90
66608;DHT22;53462;39.616;8.824;2023-02-28T11:18:40;9.00;99.90
66608;DHT22;53462;39.616;8.824;2023-02-28T11:21:08;9.00;99.90
66608;DHT22;53462;39.616;8.824;2023-02-28T11:23:36;9.00;99.90
66608;DHT22;53462;39.616;8.824;2023-02-28T11:26:05;9.10;99.90
66608;DHT22;53462;39.616;8.824;2023-02-28T11:28:40;9.10;99.90
66608;DHT22;53462;39.616;8.824;2023-02-28T11:33:46;9.50;99.90
66608;DHT22;53462;39.616;8.824;2023-02-28T11:36:15;9.70;99.90
66608;DHT22;53462;39.616;8.824;2023-02-28T11:38:42;9.80;99.90
66608;DHT22;53462;39.616;8.824;2023-02-28T11:41:30;10.30;99.90
66608;DHT22;53462;39.616;8.824;2023-02-28T11:46:52;10.70;96.80
66608;DHT22;53462;39.616;8.824;2023-02-28T11:49:43;11.00;96.30
66608;DHT22;53462;39.616;8.824;2023-02-28T12:02:59;11.70;93.80
66608;DHT22;53462;39.616;8.824;2023-02-28T12:13:48;11.40;94.10
66608;DHT22;53462;39.616;8.824;2023-02-28T12:19:00;11.00;90.50
66608;DHT22;53462;39.616;8.824;2023-02-28T12:21:40;11.10;90.00
66608;DHT22;53462;39.616;8.824;2023-02-28T12:26:46;10.70;91.80
66608;DHT22;53462;39.616;8.824;2023-02-28T12:32:31;11.00;88.40
66608;DHT22;53462;39.616;8.824;2023-02-28T12:35:02;11.10;88.80
66608;DHT22;53462;39.616;8.824;2023-02-28T12:37:35;11.00;92.50
66608;DHT22;53462;39.616;8.824;2023-02-28T12:40:14;11.20;90.50
66608;DHT22;53462;39.616;8.824;2023-02-28T12:42:45;11.20;90.20
66608;DHT22;53462;39.616;8.824;2023-02-28T12:45:23;11.20;90.50
66608;DHT22;53462;39.616;8.824;2023-02-28T12:48:00;11.00;89.80
66608;DHT22;53462;39.616;8.824;2023-02-28T12:50:29;11.40;90.90
66608;DHT22;53462;39.616;8.824;2023-02-28T12:53:02;11.10;88.90
66608;DHT22;53462;39.616;8.824;2023-02-28T12:58:56;11.10;88.20
66608;DHT22;53462;39.616;8.824;2023-02-28T13:09:21;10.70;91.10
66608;DHT22;53462;39.616;8.824;2023-02-28T13:11:50;10.80;91.80
66608;DHT22;53462;39.616;8.824;2023-02-28T13:14:24;10.70;92.30
66608;DHT22;53462;39.616;8.824;2023-02-28T13:19:30;10.90;91.90
66608;DHT22;53462;39.616;8.824;2023-02-28T13:21:58;10.80;91.00
66608;DHT22;53462;39.616;8.824;2023-02-28T13:24:47;10.60;89.90
66608;DHT22;53462;39.616;8.824;2023-02-28T13:29:41;10.40;93.20
66608;DHT22;53462;39.616;8.824;2023-02-28T13:34:35;10.20;96.60
66608;DHT22;53462;39.616;8.824;2023-02-28T13:39:56;10.00;99.90
66608;DHT22;53462;39.616;8.824;2023-02-28T14:06:38;9.80;99.90
66608;DHT22;53462;39.616;8.824;2023-02-28T14:11:54;9.50;99.90
66608;DHT22;53462;39.616;8.824;2023-02-28T14:17:03;9.80;99.90
66608;DHT22;53462;39.616;8.824;2023-02-28T14:19:32;9.80;99.90
66608;DHT22;53462;39.616;8.824;2023-02-28T14:28:08;9.70;99.90
66608;DHT22;53462;39.616;8.824;2023-02-28T14:30:57;9.50;99.90
66608;DHT22;53462;39.616;8.824;2023-02-28T14:36:31;9.60;99.90
66608;DHT22;53462;39.616;8.824;2023-02-28T14:39:04;9.70;99.90
66608;DHT22;53462;39.616;8.824;2023-02-28T14:41:39;9.60;99.90
66608;DHT22;53462;39.616;8.824;2023-02-28T14:46:50;9.20;99.90
66608;DHT22;53462;39.616;8.824;2023-02-28T14:49:24;9.70;99.90
66608;DHT22;53462;39.616;8.824;2023-02-28T14:54:29;9.80;99.90
66608;DHT22;53462;39.616;8.824;2023-02-28T14:56:55;9.40;99.90
66608;DHT22;53462;39.616;8.824;2023-02-28T14:59:33;9.30;99.90
66608;DHT22;53462;39.616;8.824;2023-02-28T15:02:22;9.30;99.90
66608;DHT22;53462;39.616;8.824;2023-02-28T15:05:31;9.20;99.90
66608;DHT22;53462;39.616;8.824;2023-02-28T15:08:15;9.40;99.90
66608;DHT22;53462;39.616;8.824;2023-02-28T15:10:57;9.30;99.90
66608;DHT22;53462;39.616;8.824;2023-02-28T15:13:40;9.40;99.90
66608;DHT22;53462;39.616;8.824;2023-02-28T15:16:16;9.50;99.90
66608;DHT22;53462;39.616;8.824;2023-02-28T15:18:58;9.90;99.90
66608;DHT22;53462;39.616;8.824;2023-02-28T15:21:29;9.70;99.90
66608;DHT22;53462;39.616;8.824;2023-02-28T15:26:39;8.90;99.90
66608;DHT22;53462;39.616;8.824;2023-02-28T15:29:13;9.00;99.90
66608;DHT22;53462;39.616;8.824;2023-02-28T15:31:43;8.60;99.90
66608;DHT22;53462;39.616;8.824;2023-02-28T15:34:26;8.30;99.90
66608;DHT22;53462;39.616;8.824;2023-02-28T15:36:53;8.40;99.90
66608;DHT22;53462;39.616;8.824;2023-02-28T15:39:24;8.30;99.90
66608;DHT22;53462;39.616;8.824;2023-02-28T15:41:50;8.40;99.90
66608;DHT22;53462;39.616;8.824;2023-02-28T15:47:29;8.20;99.90
66608;DHT22;53462;39.616;8.824;2023-02-28T15:49:58;8.30;99.90
66608;DHT22;53462;39.616;8.824;2023-02-28T15:52:40;8.30;99.90
66608;DHT22;53462;39.616;8.824;2023-02-28T15:55:18;8.20;99.90
66608;DHT22;53462;39.616;8.824;2023-02-28T15:57:46;8.20;99.90
66608;DHT22;53462;39.616;8.824;2023-02-28T16:00:16;8.20;99.90
66608;DHT22;53462;39.616;8.824;2023-02-28T16:02:42;8.30;99.90
66608;DHT22;53462;39.616;8.824;2023-02-28T16:07:36;8.20;99.90
66608;DHT22;53462;39.616;8.824;2023-02-28T16:10:03;8.00;99.90
66608;DHT22;53462;39.616;8.824;2023-02-28T16:12:32;8.00;99.90
66608;DHT22;53462;39.616;8.824;2023-02-28T16:15:01;8.00;99.90
66608;DHT22;53462;39.616;8.824;2023-02-28T16:17:31;8.00;99.90
66608;DHT22;53462;39.616;8.824;2023-02-28T16:19:58;8.10;99.90
66608;DHT22;53462;39.616;8.824;2023-02-28T16:22:24;8.10;99.90
66608;DHT22;53462;39.616;8.824;2023-02-28T16:24:51;8.00;99.90
66608;DHT22;53462;39.616;8.824;2023-02-28T16:29:42;7.90;99.90
66608;DHT22;53462;39.616;8.824;2023-02-28T16:32:13;7.90;99.90
66608;DHT22;53462;39.616;8.824;2023-02-28T16:34:40;8.00;99.90
66608;DHT22;53462;39.616;8.824;2023-02-28T16:37:13;7.90;99.90
66608;DHT22;53462;39.616;8.824;2023-02-28T16:39:40;7.80;99.90
66608;DHT22;53462;39.616;8.824;2023-02-28T16:42:42;7.80;99.90
66608;DHT22;53462;39.616;8.824;2023-02-28T16:45:01;8.00;99.90
66608;DHT22;53462;39.616;8.824;2023-02-28T16:47:28;7.90;99.90
66608;DHT22;53462;39.616;8.824;2023-02-28T16:49:54;7.90;99.90
66608;DHT22;53462;39.616;8.824;2023-02-28T16:52:20;7.90;99.90
66608;DHT22;53462;39.616;8.824;2023-02-28T16:54:46;7.90;99.90
66608;DHT22;53462;39.616;8.824;2023-02-28T16:57:25;7.90;99.90
66608;DHT22;53462;39.616;8.824;2023-02-28T16:59:51;7.80;99.90
66608;DHT22;53462;39.616;8.824;2023-02-28T17:02:18;7.80;99.90
66608;DHT22;53462;39.616;8.824;2023-02-28T17:04:45;7.70;99.90
66608;DHT22;53462;39.616;8.824;2023-02-28T17:07:13;7.60;99.90
66608;DHT22;53462;39.616;8.824;2023-02-28T17:09:39;7.60;99.90
66608;DHT22;53462;39.616;8.824;2023-02-28T17:12:06;7.70;99.90
66608;DHT22;53462;39.616;8.824;2023-02-28T17:14:35;7.60;99.90
66608;DHT22;53462;39.616;8.824;2023-02-28T17:17:05;7.60;99.90
66608;DHT22;53462;39.616;8.824;2023-02-28T17:19:35;7.50;99.90
66608;DHT22;53462;39.616;8.824;2023-02-28T17:22:04;7.60;99.90
66608;DHT22;53462;39.616;8.824;2023-02-28T17:24:32;7.60;99.90
66608;DHT22;53462;39.616;8.824;2023-02-28T17:27:00;7.40;99.90
66608;DHT22;53462;39.616;8.824;2023-02-28T17:29:27;7.30;99.90
66608;DHT22;53462;39.616;8.824;2023-02-28T17:31:56;7.20;99.90
66608;DHT22;53462;39.616;8.824;2023-02-28T17:34:22;7.10;99.90
66608;DHT22;53462;39.616;8.824;2023-02-28T17:36:51;7.20;99.90
66608;DHT22;53462;39.616;8.824;2023-02-28T17:39:19;7.20;99.90
66608;DHT22;53462;39.616;8.824;2023-02-28T17:41:51;7.20;99.90
66608;DHT22;53462;39.616;8.824;2023-02-28T17:44:21;7.20;99.90
66608;DHT22;53462;39.616;8.824;2023-02-28T17:46:48;7.10;99.90
66608;DHT22;53462;39.616;8.824;2023-02-28T17:49:19;7.10;99.90
66608;DHT22;53462;39.616;8.824;2023-02-28T17:51:46;7.20;99.90
66608;DHT22;53462;39.616;8.824;2023-02-28T17:54:14;7.20;99.90
66608;DHT22;53462;39.616;8.824;2023-02-28T17:56:41;7.20;99.90
66608;DHT22;53462;39.616;8.824;2023-02-28T17:59:09;7.10;99.90
66608;DHT22;53462;39.616;8.824;2023-02-28T18:01:36;7.10;99.90
66608;DHT22;53462;39.616;8.824;2023-02-28T18:04:02;7.00;99.90
66608;DHT22;53462;39.616;8.824;2023-02-28T18:06:37;6.90;99.90
66608;DHT22;53462;39.616;8.824;2023-02-28T18:09:17;6.90;99.90
66608;DHT22;53462;39.616;8.824;2023-02-28T18:11:44;6.80;99.90
66608;DHT22;53462;39.616;8.824;2023-02-28T18:14:15;6.90;99.90
66608;DHT22;53462;39.616;8.824;2023-02-28T18:16:42;6.80;99.90
66608;DHT22;53462;39.616;8.824;2023-02-28T18:19:09;6.80;99.90
66608;DHT22;53462;39.616;8.824;2023-02-28T18:21:44;6.80;99.90
66608;DHT22;53462;39.616;8.824;2023-02-28T18:24:11;6.70;99.90
66608;DHT22;53462;39.616;8.824;2023-02-28T18:26:39;6.70;99.90
66608;DHT22;53462;39.616;8.824;2023-02-28T18:29:06;6.70;99.90
66608;DHT22;53462;39.616;8.824;2023-02-28T18:31:32;6.60;99.90
66608;DHT22;53462;39.616;8.824;2023-02-28T18:33:59;6.60;99.90
66608;DHT22;53462;39.616;8.824;2023-02-28T18:36:25;6.60;99.90
66608;DHT22;53462;39.616;8.824;2023-02-28T18:38:52;6.70;99.90
66608;DHT22;53462;39.616;8.824;2023-02-28T18:41:19;6.60;99.90
66608;DHT22;53462;39.616;8.824;2023-02-28T18:43:47;6.60;99.90